sensor_id;sensor_type;location;lat;lon;timestamp;temperature;humidity
16958;DHT22;8595;52.542;11.974;2024-02-26T00:02:24;4.00;99.90
16958;DHT22;8595;52.542;11.974;2024-02-26T00:04:52;4.00;99.90
16958;DHT22;8595;52.542;11.974;2024-02-26T00:07:18;4.00;99.90
16958;DHT22;8595;52.542;11.974;2024-02-26T00:09:45;4.10;99.90
16958;DHT22;8595;52.542;11.974;2024-02-26T00:12:12;4.10;99.90
16958;DHT22;8595;52.542;11.974;2024-02-26T00:14:38;4.10;99.90
16958;DHT22;8595;52.542;11.974;2024-02-26T00:17:06;4.10;99.90
16958;DHT22;8595;52.542;11.974;2024-02-26T00:19:35;4.00;99.90
16958;DHT22;8595;52.542;11.974;2024-02-26T00:22:03;4.10;99.90
16958;DHT22;8595;52.542;11.974;2024-02-26T00:24:29;4.10;99.90
16958;DHT22;8595;52.542;11.974;2024-02-26T00:26:56;4.10;99.90
16958;DHT22;8595;52.542;11.974;2024-02-26T00:29:23;4.20;99.90
16958;DHT22;8595;52.542;11.974;2024-02-26T00:31:49;4.20;99.90
16958;DHT22;8595;52.542;11.974;2024-02-26T00:34:15;4.20;99.90
16958;DHT22;8595;52.542;11.974;2024-02-26T00:36:42;4.20;99.90
16958;DHT22;8595;52.542;11.974;2024-02-26T00:39:11;4.20;99.90
16958;DHT22;8595;52.542;11.974;2024-02-26T00:41:39;4.20;99.90
16958;DHT22;8595;52.542;11.974;2024-02-26T00:44:06;4.20;99.90
16958;DHT22;8595;52.542;11.974;2024-02-26T00:46:32;4.30;99.90
16958;DHT22;8595;52.542;11.974;2024-02-26T00:48:59;4.20;99.90
16958;DHT22;8595;52.542;11.974;2024-02-26T00:51:27;4.20;99.90
16958;DHT22;8595;52.542;11.974;2024-02-26T00:53:54;4.20;99.90
16958;DHT22;8595;52.542;11.974;2024-02-26T00:56:21;4.30;99.90
16958;DHT22;8595;52.542;11.974;2024-02-26T00:58:48;4.30;99.90
16958;DHT22;8595;52.542;11.974;2024-02-26T01:01:15;4.20;99.90
16958;DHT22;8595;52.542;11.974;2024-02-26T01:03:41;4.20;99.90
16958;DHT22;8595;52.542;11.974;2024-02-26T01:06:08;4.20;99.90
16958;DHT22;8595;52.542;11.974;2024-02-26T01:08:35;4.20;99.90
16958;DHT22;8595;52.542;11.974;2024-02-26T01:11:03;4.30;99.90
16958;DHT22;8595;52.542;11.974;2024-02-26T01:13:31;4.40;99.90
16958;DHT22;8595;52.542;11.974;2024-02-26T01:15:57;4.50;99.90
16958;DHT22;8595;52.542;11.974;2024-02-26T01:18:26;4.50;99.90
16958;DHT22;8595;52.542;11.974;2024-02-26T01:20:52;4.60;99.90
16958;DHT22;8595;52.542;11.974;2024-02-26T01:23:19;4.50;99.90
16958;DHT22;8595;52.542;11.974;2024-02-26T01:25:46;4.50;99.90
16958;DHT22;8595;52.542;11.974;2024-02-26T01:28:14;4.40;99.90
16958;DHT22;8595;52.542;11.974;2024-02-26T01:30:42;4.40;99.90
16958;DHT22;8595;52.542;11.974;2024-02-26T01:33:09;4.40;99.90
16958;DHT22;8595;52.542;11.974;2024-02-26T01:35:37;4.30;99.90
16958;DHT22;8595;52.542;11.974;2024-02-26T01:38:04;4.30;99.90
16958;DHT22;8595;52.542;11.974;2024-02-26T01:40:31;4.30;99.90
16958;DHT22;8595;52.542;11.974;2024-02-26T01:42:58;4.20;99.90
16958;DHT22;8595;52.542;11.974;2024-02-26T01:45:25;4.20;99.90
16958;DHT22;8595;52.542;11.974;2024-02-26T01:47:54;4.20;99.90
16958;DHT22;8595;52.542;11.974;2024-02-26T01:50:22;4.20;99.90
16958;DHT22;8595;52.542;11.974;2024-02-26T01:52:50;4.20;99.90
16958;DHT22;8595;52.542;11.974;2024-02-26T01:55:18;4.10;99.90
16958;DHT22;8595;52.542;11.974;2024-02-26T01:57:46;4.10;99.90
16958;DHT22;8595;52.542;11.974;2024-02-26T02:00:14;4.10;99.90
16958;DHT22;8595;52.542;11.974;2024-02-26T02:02:42;4.10;99.90
16958;DHT22;8595;52.542;11.974;2024-02-26T02:05:14;4.00;99.90
16958;DHT22;8595;52.542;11.974;2024-02-26T02:07:41;4.10;99.90
16958;DHT22;8595;52.542;11.974;2024-02-26T02:10:08;4.20;99.90
16958;DHT22;8595;52.542;11.974;2024-02-26T02:12:35;4.20;99.90
16958;DHT22;8595;52.542;11.974;2024-02-26T02:15:05;4.20;99.90
16958;DHT22;8595;52.542;11.974;2024-02-26T02:17:32;4.20;99.90
16958;DHT22;8595;52.542;11.974;2024-02-26T02:19:59;4.30;99.90
16958;DHT22;8595;52.542;11.974;2024-02-26T02:22:27;4.30;99.90
16958;DHT22;8595;52.542;11.974;2024-02-26T02:24:53;4.20;99.90
16958;DHT22;8595;52.542;11.974;2024-02-26T02:27:20;4.20;99.90
16958;DHT22;8595;52.542;11.974;2024-02-26T02:29:48;4.20;99.90
16958;DHT22;8595;52.542;11.974;2024-02-26T02:32:16;4.20;99.90
16958;DHT22;8595;52.542;11.974;2024-02-26T02:34:43;4.10;99.90
16958;DHT22;8595;52.542;11.974;2024-02-26T02:37:11;4.20;99.90
16958;DHT22;8595;52.542;11.974;2024-02-26T02:39:38;4.20;99.90
16958;DHT22;8595;52.542;11.974;2024-02-26T02:42:06;4.20;99.90
16958;DHT22;8595;52.542;11.974;2024-02-26T02:44:32;4.20;99.90
16958;DHT22;8595;52.542;11.974;2024-02-26T02:46:59;4.20;99.90
16958;DHT22;8595;52.542;11.974;2024-02-26T02:49:25;4.10;99.90
16958;DHT22;8595;52.542;11.974;2024-02-26T02:51:52;4.10;99.90
16958;DHT22;8595;52.542;11.974;2024-02-26T02:54:19;4.00;99.90
16958;DHT22;8595;52.542;11.974;2024-02-26T02:56:47;4.00;99.90
16958;DHT22;8595;52.542;11.974;2024-02-26T02:59:14;4.00;99.90
16958;DHT22;8595;52.542;11.974;2024-02-26T03:01:40;4.00;99.90
16958;DHT22;8595;52.542;11.974;2024-02-26T03:04:07;3.90;99.90
16958;DHT22;8595;52.542;11.974;2024-02-26T03:06:34;3.90;99.90
16958;DHT22;8595;52.542;11.974;2024-02-26T03:09:00;3.90;99.90
16958;DHT22;8595;52.542;11.974;2024-02-26T03:11:27;3.90;99.90
16958;DHT22;8595;52.542;11.974;2024-02-26T03:13:55;3.80;99.90
16958;DHT22;8595;52.542;11.974;2024-02-26T03:16:22;3.80;99.90
16958;DHT22;8595;52.542;11.974;2024-02-26T03:18:48;3.80;99.90
16958;DHT22;8595;52.542;11.974;2024-02-26T03:21:15;3.80;99.90
16958;DHT22;8595;52.542;11.974;2024-02-26T03:23:41;3.80;99.90
16958;DHT22;8595;52.542;11.974;2024-02-26T03:26:08;3.80;99.90
16958;DHT22;8595;52.542;11.974;2024-02-26T03:28:39;4.00;99.90
16958;DHT22;8595;52.542;11.974;2024-02-26T03:31:07;3.90;99.90
16958;DHT22;8595;52.542;11.974;2024-02-26T03:33:34;3.90;99.90
16958;DHT22;8595;52.542;11.974;2024-02-26T03:36:01;3.80;99.90
16958;DHT22;8595;52.542;11.974;2024-02-26T03:38:28;3.90;99.90
16958;DHT22;8595;52.542;11.974;2024-02-26T03:40:55;3.90;99.90
16958;DHT22;8595;52.542;11.974;2024-02-26T03:43:21;3.90;99.90
16958;DHT22;8595;52.542;11.974;2024-02-26T03:45:48;4.00;99.90
16958;DHT22;8595;52.542;11.974;2024-02-26T03:48:16;4.00;99.90
16958;DHT22;8595;52.542;11.974;2024-02-26T03:50:43;4.10;99.90
16958;DHT22;8595;52.542;11.974;2024-02-26T03:53:09;4.10;99.90
16958;DHT22;8595;52.542;11.974;2024-02-26T03:55:38;4.00;99.90
16958;DHT22;8595;52.542;11.974;2024-02-26T03:58:07;4.00;99.90
16958;DHT22;8595;52.542;11.974;2024-02-26T04:00:33;3.90;99.90
16958;DHT22;8595;52.542;11.974;2024-02-26T04:03:00;3.90;99.90
16958;DHT22;8595;52.542;11.974;2024-02-26T04:05:28;3.80;99.90
16958;DHT22;8595;52.542;11.974;2024-02-26T04:07:55;3.80;99.90
16958;DHT22;8595;52.542;11.974;2024-02-26T04:10:21;3.80;99.90
16958;DHT22;8595;52.542;11.974;2024-02-26T04:12:48;3.80;99.90
16958;DHT22;8595;52.542;11.974;2024-02-26T04:15:15;3.90;99.90
16958;DHT22;8595;52.542;11.974;2024-02-26T04:17:42;3.90;99.90
16958;DHT22;8595;52.542;11.974;2024-02-26T04:20:13;3.90;99.90
16958;DHT22;8595;52.542;11.974;2024-02-26T04:22:41;3.90;99.90
16958;DHT22;8595;52.542;11.974;2024-02-26T04:25:08;3.80;99.90
16958;DHT22;8595;52.542;11.974;2024-02-26T04:27:35;3.90;99.90
16958;DHT22;8595;52.542;11.974;2024-02-26T04:30:02;3.80;99.90
16958;DHT22;8595;52.542;11.974;2024-02-26T04:32:29;3.80;99.90
16958;DHT22;8595;52.542;11.974;2024-02-26T04:34:56;3.80;99.90
16958;DHT22;8595;52.542;11.974;2024-02-26T04:37:23;3.80;99.90
16958;DHT22;8595;52.542;11.974;2024-02-26T04:39:51;3.80;99.90
16958;DHT22;8595;52.542;11.974;2024-02-26T04:42:17;3.80;99.90
16958;DHT22;8595;52.542;11.974;2024-02-26T04:44:44;3.80;99.90
16958;DHT22;8595;52.542;11.974;2024-02-26T04:47:10;3.80;99.90
16958;DHT22;8595;52.542;11.974;2024-02-26T04:49:37;3.80;99.90
16958;DHT22;8595;52.542;11.974;2024-02-26T04:52:04;3.80;99.90
16958;DHT22;8595;52.542;11.974;2024-02-26T04:54:31;3.80;99.90
16958;DHT22;8595;52.542;11.974;2024-02-26T04:56:59;3.70;99.90
16958;DHT22;8595;52.542;11.974;2024-02-26T04:59:25;3.60;99.90
16958;DHT22;8595;52.542;11.974;2024-02-26T05:01:52;3.60;99.90
16958;DHT22;8595;52.542;11.974;2024-02-26T05:04:19;3.60;99.90
16958;DHT22;8595;52.542;11.974;2024-02-26T05:06:45;3.70;99.90
16958;DHT22;8595;52.542;11.974;2024-02-26T05:09:12;3.70;99.90
16958;DHT22;8595;52.542;11.974;2024-02-26T05:11:38;3.70;99.90
16958;DHT22;8595;52.542;11.974;2024-02-26T05:14:08;3.60;99.90
16958;DHT22;8595;52.542;11.974;2024-02-26T05:16:35;3.60;99.90
16958;DHT22;8595;52.542;11.974;2024-02-26T05:19:01;3.60;99.90
16958;DHT22;8595;52.542;11.974;2024-02-26T05:21:28;3.60;99.90
16958;DHT22;8595;52.542;11.974;2024-02-26T05:23:55;3.60;99.90
16958;DHT22;8595;52.542;11.974;2024-02-26T05:26:21;3.60;99.90
16958;DHT22;8595;52.542;11.974;2024-02-26T05:28:48;3.60;99.90
16958;DHT22;8595;52.542;11.974;2024-02-26T05:31:17;3.70;99.90
16958;DHT22;8595;52.542;11.974;2024-02-26T05:33:44;3.60;99.90
16958;DHT22;8595;52.542;11.974;2024-02-26T05:36:18;3.60;99.90
16958;DHT22;8595;52.542;11.974;2024-02-26T05:38:44;3.60;99.90
16958;DHT22;8595;52.542;11.974;2024-02-26T05:41:11;3.70;99.90
16958;DHT22;8595;52.542;11.974;2024-02-26T05:43:38;3.70;99.90
16958;DHT22;8595;52.542;11.974;2024-02-26T05:46:05;3.70;99.90
16958;DHT22;8595;52.542;11.974;2024-02-26T05:48:33;3.60;99.90
16958;DHT22;8595;52.542;11.974;2024-02-26T05:51:00;3.60;99.90
16958;DHT22;8595;52.542;11.974;2024-02-26T05:53:26;3.60;99.90
16958;DHT22;8595;52.542;11.974;2024-02-26T05:55:53;3.50;99.90
16958;DHT22;8595;52.542;11.974;2024-02-26T05:58:19;3.40;99.90
16958;DHT22;8595;52.542;11.974;2024-02-26T06:00:46;3.50;99.90
16958;DHT22;8595;52.542;11.974;2024-02-26T06:03:13;3.50;99.90
16958;DHT22;8595;52.542;11.974;2024-02-26T06:05:41;3.60;99.90
16958;DHT22;8595;52.542;11.974;2024-02-26T06:08:08;3.60;99.90
16958;DHT22;8595;52.542;11.974;2024-02-26T06:10:35;3.60;99.90
16958;DHT22;8595;52.542;11.974;2024-02-26T06:13:01;3.70;99.90
16958;DHT22;8595;52.542;11.974;2024-02-26T06:15:28;3.70;99.90
16958;DHT22;8595;52.542;11.974;2024-02-26T06:17:54;3.60;99.90
16958;DHT22;8595;52.542;11.974;2024-02-26T06:20:21;3.70;99.90
16958;DHT22;8595;52.542;11.974;2024-02-26T06:22:49;3.60;99.90
16958;DHT22;8595;52.542;11.974;2024-02-26T06:25:16;3.60;99.90
16958;DHT22;8595;52.542;11.974;2024-02-26T06:27:42;3.70;99.90
16958;DHT22;8595;52.542;11.974;2024-02-26T06:30:10;3.70;99.90
16958;DHT22;8595;52.542;11.974;2024-02-26T06:32:36;3.80;99.90
16958;DHT22;8595;52.542;11.974;2024-02-26T06:35:04;3.90;99.90
16958;DHT22;8595;52.542;11.974;2024-02-26T06:37:32;3.90;99.90
16958;DHT22;8595;52.542;11.974;2024-02-26T06:40:00;3.90;99.90
16958;DHT22;8595;52.542;11.974;2024-02-26T06:42:29;3.90;99.90
16958;DHT22;8595;52.542;11.974;2024-02-26T06:44:55;3.90;99.90
16958;DHT22;8595;52.542;11.974;2024-02-26T06:47:22;3.90;99.90
16958;DHT22;8595;52.542;11.974;2024-02-26T06:49:49;4.00;99.90
16958;DHT22;8595;52.542;11.974;2024-02-26T06:52:17;4.10;99.90
16958;DHT22;8595;52.542;11.974;2024-02-26T06:54:44;4.10;99.90
16958;DHT22;8595;52.542;11.974;2024-02-26T06:57:13;4.20;99.90
16958;DHT22;8595;52.542;11.974;2024-02-26T06:59:40;4.20;99.90
16958;DHT22;8595;52.542;11.974;2024-02-26T07:02:12;4.30;99.90
16958;DHT22;8595;52.542;11.974;2024-02-26T07:04:39;4.30;99.90
16958;DHT22;8595;52.542;11.974;2024-02-26T07:07:06;4.30;99.90
16958;DHT22;8595;52.542;11.974;2024-02-26T07:09:33;4.40;99.90
16958;DHT22;8595;52.542;11.974;2024-02-26T07:11:59;4.50;99.90
16958;DHT22;8595;52.542;11.974;2024-02-26T07:14:27;4.60;99.90
16958;DHT22;8595;52.542;11.974;2024-02-26T07:16:54;4.50;99.90
16958;DHT22;8595;52.542;11.974;2024-02-26T07:19:21;4.50;99.90
16958;DHT22;8595;52.542;11.974;2024-02-26T07:21:48;4.70;99.90
16958;DHT22;8595;52.542;11.974;2024-02-26T07:24:15;4.70;99.90
16958;DHT22;8595;52.542;11.974;2024-02-26T07:26:41;4.80;99.90
16958;DHT22;8595;52.542;11.974;2024-02-26T07:29:08;4.80;99.90
16958;DHT22;8595;52.542;11.974;2024-02-26T07:31:36;4.80;99.90
16958;DHT22;8595;52.542;11.974;2024-02-26T07:34:03;4.80;99.90
16958;DHT22;8595;52.542;11.974;2024-02-26T07:36:29;5.00;99.90
16958;DHT22;8595;52.542;11.974;2024-02-26T07:38:56;5.00;99.90
16958;DHT22;8595;52.542;11.974;2024-02-26T07:41:23;5.10;99.90
16958;DHT22;8595;52.542;11.974;2024-02-26T07:43:49;5.30;99.90
16958;DHT22;8595;52.542;11.974;2024-02-26T07:46:16;5.30;99.90
16958;DHT22;8595;52.542;11.974;2024-02-26T07:48:44;5.40;99.90
16958;DHT22;8595;52.542;11.974;2024-02-26T07:51:13;5.40;99.90
16958;DHT22;8595;52.542;11.974;2024-02-26T07:53:40;5.50;99.90
16958;DHT22;8595;52.542;11.974;2024-02-26T07:56:08;5.60;99.90
16958;DHT22;8595;52.542;11.974;2024-02-26T07:58:35;5.60;99.90
16958;DHT22;8595;52.542;11.974;2024-02-26T08:01:02;5.70;99.90
16958;DHT22;8595;52.542;11.974;2024-02-26T08:03:28;5.70;99.90
16958;DHT22;8595;52.542;11.974;2024-02-26T08:05:56;5.80;99.90
16958;DHT22;8595;52.542;11.974;2024-02-26T08:08:23;5.80;99.90
16958;DHT22;8595;52.542;11.974;2024-02-26T08:10:49;5.90;99.90
16958;DHT22;8595;52.542;11.974;2024-02-26T08:13:16;5.90;99.90
16958;DHT22;8595;52.542;11.974;2024-02-26T08:15:43;6.00;99.90
16958;DHT22;8595;52.542;11.974;2024-02-26T08:18:09;6.10;99.90
16958;DHT22;8595;52.542;11.974;2024-02-26T08:20:36;6.10;99.90
16958;DHT22;8595;52.542;11.974;2024-02-26T08:23:04;6.00;99.90
16958;DHT22;8595;52.542;11.974;2024-02-26T08:25:31;6.10;99.90
16958;DHT22;8595;52.542;11.974;2024-02-26T08:27:58;6.20;99.90
16958;DHT22;8595;52.542;11.974;2024-02-26T08:30:25;6.30;99.90
16958;DHT22;8595;52.542;11.974;2024-02-26T08:32:51;6.40;99.90
16958;DHT22;8595;52.542;11.974;2024-02-26T08:35:19;6.60;99.90
16958;DHT22;8595;52.542;11.974;2024-02-26T08:37:44;6.80;99.90
16958;DHT22;8595;52.542;11.974;2024-02-26T08:40:13;6.90;99.90
16958;DHT22;8595;52.542;11.974;2024-02-26T08:42:40;6.90;99.90
16958;DHT22;8595;52.542;11.974;2024-02-26T08:45:08;7.10;99.90
16958;DHT22;8595;52.542;11.974;2024-02-26T08:47:34;7.20;99.90
16958;DHT22;8595;52.542;11.974;2024-02-26T08:50:01;7.30;99.90
16958;DHT22;8595;52.542;11.974;2024-02-26T08:52:28;7.40;99.90
16958;DHT22;8595;52.542;11.974;2024-02-26T08:54:54;7.50;99.90
16958;DHT22;8595;52.542;11.974;2024-02-26T08:57:22;7.70;99.90
16958;DHT22;8595;52.542;11.974;2024-02-26T08:59:49;7.90;99.90
16958;DHT22;8595;52.542;11.974;2024-02-26T09:02:16;8.00;99.90
16958;DHT22;8595;52.542;11.974;2024-02-26T09:04:43;8.10;99.90
16958;DHT22;8595;52.542;11.974;2024-02-26T09:07:09;8.20;99.90
16958;DHT22;8595;52.542;11.974;2024-02-26T09:09:36;8.40;99.90
16958;DHT22;8595;52.542;11.974;2024-02-26T09:12:03;8.60;99.90
16958;DHT22;8595;52.542;11.974;2024-02-26T09:14:31;8.60;99.90
16958;DHT22;8595;52.542;11.974;2024-02-26T09:16:58;8.70;99.90
16958;DHT22;8595;52.542;11.974;2024-02-26T09:19:26;8.90;99.90
16958;DHT22;8595;52.542;11.974;2024-02-26T09:21:53;9.00;99.90
16958;DHT22;8595;52.542;11.974;2024-02-26T09:24:23;9.00;99.90
16958;DHT22;8595;52.542;11.974;2024-02-26T09:26:50;9.10;99.90
16958;DHT22;8595;52.542;11.974;2024-02-26T09:29:17;9.30;99.90
16958;DHT22;8595;52.542;11.974;2024-02-26T09:31:45;9.60;99.90
16958;DHT22;8595;52.542;11.974;2024-02-26T09:34:13;9.80;99.90
16958;DHT22;8595;52.542;11.974;2024-02-26T09:36:40;9.80;99.90
16958;DHT22;8595;52.542;11.974;2024-02-26T09:39:07;10.00;99.90
16958;DHT22;8595;52.542;11.974;2024-02-26T09:41:37;10.00;99.90
16958;DHT22;8595;52.542;11.974;2024-02-26T09:44:05;10.10;99.90
16958;DHT22;8595;52.542;11.974;2024-02-26T09:46:33;10.10;99.90
16958;DHT22;8595;52.542;11.974;2024-02-26T09:49:01;10.00;99.90
16958;DHT22;8595;52.542;11.974;2024-02-26T09:51:28;10.10;99.90
16958;DHT22;8595;52.542;11.974;2024-02-26T09:53:56;10.20;99.90
16958;DHT22;8595;52.542;11.974;2024-02-26T09:56:26;10.20;99.90
16958;DHT22;8595;52.542;11.974;2024-02-26T09:58:56;10.20;99.90
16958;DHT22;8595;52.542;11.974;2024-02-26T10:01:24;10.20;99.90
16958;DHT22;8595;52.542;11.974;2024-02-26T10:03:55;10.20;99.90
16958;DHT22;8595;52.542;11.974;2024-02-26T10:06:26;10.30;99.90
16958;DHT22;8595;52.542;11.974;2024-02-26T10:08:53;10.40;99.90
16958;DHT22;8595;52.542;11.974;2024-02-26T10:11:20;10.20;99.90
16958;DHT22;8595;52.542;11.974;2024-02-26T10:13:48;10.20;99.90
16958;DHT22;8595;52.542;11.974;2024-02-26T10:16:16;10.10;99.90
16958;DHT22;8595;52.542;11.974;2024-02-26T10:18:46;10.00;99.90
16958;DHT22;8595;52.542;11.974;2024-02-26T10:21:13;10.10;99.90
16958;DHT22;8595;52.542;11.974;2024-02-26T10:23:44;10.10;99.90
16958;DHT22;8595;52.542;11.974;2024-02-26T10:26:12;10.20;99.90
16958;DHT22;8595;52.542;11.974;2024-02-26T10:28:39;10.20;99.90
16958;DHT22;8595;52.542;11.974;2024-02-26T10:31:06;10.20;99.90
16958;DHT22;8595;52.542;11.974;2024-02-26T10:33:33;10.20;99.90
16958;DHT22;8595;52.542;11.974;2024-02-26T10:36:01;10.10;99.90
16958;DHT22;8595;52.542;11.974;2024-02-26T10:38:28;10.00;99.90
16958;DHT22;8595;52.542;11.974;2024-02-26T10:40:56;10.10;99.90
16958;DHT22;8595;52.542;11.974;2024-02-26T10:43:25;10.10;99.90
16958;DHT22;8595;52.542;11.974;2024-02-26T10:45:52;10.10;99.90
16958;DHT22;8595;52.542;11.974;2024-02-26T10:48:18;10.10;99.90
16958;DHT22;8595;52.542;11.974;2024-02-26T10:50:47;10.10;99.90
16958;DHT22;8595;52.542;11.974;2024-02-26T10:53:19;10.10;99.90
16958;DHT22;8595;52.542;11.974;2024-02-26T10:55:52;10.10;99.90
16958;DHT22;8595;52.542;11.974;2024-02-26T10:58:23;10.10;99.90
16958;DHT22;8595;52.542;11.974;2024-02-26T11:00:52;10.20;99.90
16958;DHT22;8595;52.542;11.974;2024-02-26T11:03:22;10.10;99.90
16958;DHT22;8595;52.542;11.974;2024-02-26T11:05:50;10.20;99.90
16958;DHT22;8595;52.542;11.974;2024-02-26T11:08:18;10.20;99.90
16958;DHT22;8595;52.542;11.974;2024-02-26T11:10:47;10.20;99.90
16958;DHT22;8595;52.542;11.974;2024-02-26T11:13:18;10.20;99.90
16958;DHT22;8595;52.542;11.974;2024-02-26T11:15:47;10.20;99.90
16958;DHT22;8595;52.542;11.974;2024-02-26T11:18:15;10.20;99.90
16958;DHT22;8595;52.542;11.974;2024-02-26T11:20:43;10.20;99.90
16958;DHT22;8595;52.542;11.974;2024-02-26T11:23:11;10.20;99.90
16958;DHT22;8595;52.542;11.974;2024-02-26T11:25:38;10.30;99.90
16958;DHT22;8595;52.542;11.974;2024-02-26T11:28:08;10.30;99.90
16958;DHT22;8595;52.542;11.974;2024-02-26T11:30:48;10.40;99.90
16958;DHT22;8595;52.542;11.974;2024-02-26T11:33:16;10.50;99.90
16958;DHT22;8595;52.542;11.974;2024-02-26T11:35:45;10.50;99.90
16958;DHT22;8595;52.542;11.974;2024-02-26T11:38:19;10.30;99.90
16958;DHT22;8595;52.542;11.974;2024-02-26T11:40:49;10.30;99.90
16958;DHT22;8595;52.542;11.974;2024-02-26T11:43:19;10.30;99.90
16958;DHT22;8595;52.542;11.974;2024-02-26T11:45:56;10.20;99.90
16958;DHT22;8595;52.542;11.974;2024-02-26T11:48:32;10.10;99.90
16958;DHT22;8595;52.542;11.974;2024-02-26T11:51:01;10.00;99.90
16958;DHT22;8595;52.542;11.974;2024-02-26T11:53:38;9.90;99.90
16958;DHT22;8595;52.542;11.974;2024-02-26T11:56:23;9.90;99.90
16958;DHT22;8595;52.542;11.974;2024-02-26T11:59:03;9.90;99.90
16958;DHT22;8595;52.542;11.974;2024-02-26T12:01:44;10.00;99.90
16958;DHT22;8595;52.542;11.974;2024-02-26T12:04:30;10.00;99.90
16958;DHT22;8595;52.542;11.974;2024-02-26T12:07:00;9.90;99.90
16958;DHT22;8595;52.542;11.974;2024-02-26T12:09:34;9.90;99.90
16958;DHT22;8595;52.542;11.974;2024-02-26T12:12:04;9.80;99.90
16958;DHT22;8595;52.542;11.974;2024-02-26T12:14:33;9.80;99.90
16958;DHT22;8595;52.542;11.974;2024-02-26T12:17:01;9.90;99.90
16958;DHT22;8595;52.542;11.974;2024-02-26T12:19:30;10.00;99.90
16958;DHT22;8595;52.542;11.974;2024-02-26T12:21:57;10.00;99.90
16958;DHT22;8595;52.542;11.974;2024-02-26T12:24:29;10.10;99.90
16958;DHT22;8595;52.542;11.974;2024-02-26T12:27:02;10.10;99.90
16958;DHT22;8595;52.542;11.974;2024-02-26T12:29:29;10.10;99.90
16958;DHT22;8595;52.542;11.974;2024-02-26T12:31:56;10.20;99.90
16958;DHT22;8595;52.542;11.974;2024-02-26T12:34:26;10.20;99.90
16958;DHT22;8595;52.542;11.974;2024-02-26T12:37:04;10.20;99.90
16958;DHT22;8595;52.542;11.974;2024-02-26T12:39:34;10.10;99.90
16958;DHT22;8595;52.542;11.974;2024-02-26T12:42:01;10.20;99.90
16958;DHT22;8595;52.542;11.974;2024-02-26T12:44:28;10.30;99.90
16958;DHT22;8595;52.542;11.974;2024-02-26T12:47:00;10.40;99.90
16958;DHT22;8595;52.542;11.974;2024-02-26T12:49:28;10.40;99.90
16958;DHT22;8595;52.542;11.974;2024-02-26T12:52:05;10.40;99.90
16958;DHT22;8595;52.542;11.974;2024-02-26T12:54:33;10.50;99.90
16958;DHT22;8595;52.542;11.974;2024-02-26T12:57:05;10.60;99.90
16958;DHT22;8595;52.542;11.974;2024-02-26T12:59:33;10.40;99.90
16958;DHT22;8595;52.542;11.974;2024-02-26T13:02:04;10.50;99.90
16958;DHT22;8595;52.542;11.974;2024-02-26T13:04:38;10.50;99.90
16958;DHT22;8595;52.542;11.974;2024-02-26T13:07:10;10.60;99.90
16958;DHT22;8595;52.542;11.974;2024-02-26T13:09:37;10.50;99.90
16958;DHT22;8595;52.542;11.974;2024-02-26T13:12:05;10.60;99.90
16958;DHT22;8595;52.542;11.974;2024-02-26T13:14:32;10.60;99.90
16958;DHT22;8595;52.542;11.974;2024-02-26T13:17:03;10.70;99.90
16958;DHT22;8595;52.542;11.974;2024-02-26T13:19:30;10.80;99.90
16958;DHT22;8595;52.542;11.974;2024-02-26T13:22:04;10.90;99.90
16958;DHT22;8595;52.542;11.974;2024-02-26T13:24:33;10.90;99.90
16958;DHT22;8595;52.542;11.974;2024-02-26T13:26:59;10.70;99.90
16958;DHT22;8595;52.542;11.974;2024-02-26T13:29:28;10.80;99.90
16958;DHT22;8595;52.542;11.974;2024-02-26T13:31:55;10.70;99.90
16958;DHT22;8595;52.542;11.974;2024-02-26T13:34:24;10.70;99.90
16958;DHT22;8595;52.542;11.974;2024-02-26T13:36:50;10.70;99.90
16958;DHT22;8595;52.542;11.974;2024-02-26T13:39:22;10.70;99.90
16958;DHT22;8595;52.542;11.974;2024-02-26T13:41:51;10.80;99.90
16958;DHT22;8595;52.542;11.974;2024-02-26T13:44:18;10.70;99.90
16958;DHT22;8595;52.542;11.974;2024-02-26T13:46:45;10.70;99.90
16958;DHT22;8595;52.542;11.974;2024-02-26T13:49:11;10.60;99.90
16958;DHT22;8595;52.542;11.974;2024-02-26T13:51:38;10.60;99.90
16958;DHT22;8595;52.542;11.974;2024-02-26T13:54:08;10.60;99.90
16958;DHT22;8595;52.542;11.974;2024-02-26T13:56:42;10.70;99.90
16958;DHT22;8595;52.542;11.974;2024-02-26T13:59:12;10.60;99.90
16958;DHT22;8595;52.542;11.974;2024-02-26T14:01:39;10.70;99.90
16958;DHT22;8595;52.542;11.974;2024-02-26T14:04:05;10.80;99.90
16958;DHT22;8595;52.542;11.974;2024-02-26T14:06:39;10.90;99.90
16958;DHT22;8595;52.542;11.974;2024-02-26T14:09:10;10.80;99.90
16958;DHT22;8595;52.542;11.974;2024-02-26T14:11:44;10.90;99.90
16958;DHT22;8595;52.542;11.974;2024-02-26T14:14:13;10.80;99.90
16958;DHT22;8595;52.542;11.974;2024-02-26T14:16:40;10.90;99.90
16958;DHT22;8595;52.542;11.974;2024-02-26T14:19:07;11.00;99.90
16958;DHT22;8595;52.542;11.974;2024-02-26T14:21:35;11.10;99.90
16958;DHT22;8595;52.542;11.974;2024-02-26T14:24:02;11.10;99.90
16958;DHT22;8595;52.542;11.974;2024-02-26T14:26:29;11.10;99.90
16958;DHT22;8595;52.542;11.974;2024-02-26T14:28:56;11.20;99.90
16958;DHT22;8595;52.542;11.974;2024-02-26T14:31:24;11.30;99.90
16958;DHT22;8595;52.542;11.974;2024-02-26T14:33:51;11.40;99.90
16958;DHT22;8595;52.542;11.974;2024-02-26T14:36:19;11.60;99.90
16958;DHT22;8595;52.542;11.974;2024-02-26T14:38:46;11.60;99.90
16958;DHT22;8595;52.542;11.974;2024-02-26T14:41:13;11.60;99.90
16958;DHT22;8595;52.542;11.974;2024-02-26T14:43:40;11.60;99.90
16958;DHT22;8595;52.542;11.974;2024-02-26T14:46:07;11.70;99.90
16958;DHT22;8595;52.542;11.974;2024-02-26T14:48:35;11.60;99.90
16958;DHT22;8595;52.542;11.974;2024-02-26T14:51:02;11.60;99.90
16958;DHT22;8595;52.542;11.974;2024-02-26T14:53:31;11.50;99.90
16958;DHT22;8595;52.542;11.974;2024-02-26T14:55:58;11.40;99.90
16958;DHT22;8595;52.542;11.974;2024-02-26T14:58:25;11.40;99.90
16958;DHT22;8595;52.542;11.974;2024-02-26T15:00:51;11.40;99.90
16958;DHT22;8595;52.542;11.974;2024-02-26T15:03:18;11.30;99.90
16958;DHT22;8595;52.542;11.974;2024-02-26T15:05:47;11.30;99.90
16958;DHT22;8595;52.542;11.974;2024-02-26T15:08:14;11.30;99.90
16958;DHT22;8595;52.542;11.974;2024-02-26T15:10:42;11.30;99.90
16958;DHT22;8595;52.542;11.974;2024-02-26T15:13:13;11.20;99.90
16958;DHT22;8595;52.542;11.974;2024-02-26T15:15:40;11.10;99.90
16958;DHT22;8595;52.542;11.974;2024-02-26T15:18:07;11.00;99.90
16958;DHT22;8595;52.542;11.974;2024-02-26T15:20:36;10.90;99.90
16958;DHT22;8595;52.542;11.974;2024-02-26T15:23:04;10.80;99.90
16958;DHT22;8595;52.542;11.974;2024-02-26T15:25:31;10.80;99.90
16958;DHT22;8595;52.542;11.974;2024-02-26T15:27:58;10.80;99.90
16958;DHT22;8595;52.542;11.974;2024-02-26T15:30:25;10.70;99.90
16958;DHT22;8595;52.542;11.974;2024-02-26T15:32:53;10.80;99.90
16958;DHT22;8595;52.542;11.974;2024-02-26T15:35:19;10.60;99.90
16958;DHT22;8595;52.542;11.974;2024-02-26T15:37:46;10.70;99.90
16958;DHT22;8595;52.542;11.974;2024-02-26T15:40:14;10.70;99.90
16958;DHT22;8595;52.542;11.974;2024-02-26T15:42:41;10.60;99.90
16958;DHT22;8595;52.542;11.974;2024-02-26T15:45:08;10.60;99.90